Detalii statie VALKAPA [00001D0A]

Toti senzorii

Date Temperatura solului [C]Precipitatii [mm]Voltaj baterie [mV]Leaf Wetness [Min]HC Air temperature [C]HC Relative humidity [%]Punctul de roua [C]
medieminmaxsumaultimatimpmedieminmaxmediemediemin
2019-04-19 19:00:00 0 7236 18.03 17.07 18.77 15.17 -9.1 -10.3
2019-04-19 20:00:00 0 6914 15.37 13.96 16.87 20.13 -7.6 -8.3
2019-04-19 21:00:00 0 6894 13.23 12.83 13.76 23.94 -7.1 -7.5
2019-04-19 22:00:00 0 6874 12.43 11.45 13.2 25.41 -7 -7.5
2019-04-19 23:00:00 0 6864 10.42 9.34 11.69 30.17 -6.5 -6.8
2019-04-20 00:00:00 0 6854 8.77 5.29 10.95 35.22 -6.1 -6.9
2019-04-20 01:00:00 0 6834 4.83 4.51 5.18 47.73 -5.3 -5.5
2019-04-20 02:00:00 0 6826 4.47 2.78 5.69 48.6 -5.5 -5.9
2019-04-20 03:00:00 0 6816 6 1.88 7.66 42.74 -5.9 -6.2
2019-04-20 04:00:00 0 6806 4.05 2.35 6.5 49.36 -5.7 -6.1
2019-04-20 05:00:00 0 6786 1.89 1.15 3.82 57.81 -5.6 -5.8
2019-04-20 06:00:00 0 6786 0.87 0.11 1.97 63.06 -5.4 -5.8
2019-04-20 07:00:00 0 6834 2.17 -0.21 5.96 61.27 -4.6 -5.3
2019-04-20 08:00:00 0 6932 9.21 7.05 10.83 39.49 -3.9 -4.3
2019-04-20 09:00:00 0 7010 12.55 11.35 13.79 33.51 -3.2 -3.5
2019-04-20 10:00:00 0 7186 15.44 14.11 16.5 26.52 -3.9 -5.8
2019-04-20 11:00:00 0 7246 17.06 16.26 17.64 20.85 -5.8 -6.9
2019-04-20 12:00:00 0 7196 17.86 17.29 18.48 18.25 -6.9 -7.8
2019-04-20 13:00:00 0 7236 18.44 17.95 19.23 16.61 -7.7 -8.6
2019-04-20 14:00:00 0 7236 19.3 18.79 20.06 14.67 -8.6 -9.7
2019-04-20 15:00:00 0 7246 19.77 19.34 20.34 14.67 -8.3 -8.7
2019-04-20 16:00:00 0 7246 19.98 19.59 20.54 13.11 -9.5 -10.4
2019-04-20 17:00:00 0 7236 20.08 19.56 20.99 13.37 -9.1 -10.5
2019-04-20 18:00:00 0 7236 19.42 19 19.91 15.31 -7.9 -8.7
2019-04-20 19:00:00 0 7226 17.73 15.68 18.93 21.96 -4.7 -8.2
2019-04-20 20:00:00 0 6904 14.43 13.34 15.68 26.74 -4.5 -5.2
2019-04-20 21:00:00 0 6884 12.6 11.9 13.28 29.15 -5 -5.6
2019-04-20 22:00:00 0 6874 12.21 11.83 12.66 28.39 -5.7 -6.3
2019-04-20 23:00:00 0 6864 12.17 11.7 12.66 27.49 -6.1 -6.5
2019-04-21 00:00:00 0 6864 11.62 9.55 12.47 28.83 -6.1 -6.9
2019-04-21 01:00:00 0 6844 8.78 8.31 9.72 41.9 -3.5 -4.3
2019-04-21 02:00:00 0 6816 10.09 8.57 10.89 38.16 -3.6 -4.1
2019-04-21 03:00:00 0 6816 10.95 10.25 11.35 34.96 -4 -4.4
2019-04-21 04:00:00 0 6816 9.84 9.37 10.27 38.15 -3.8 -4.1
2019-04-21 05:00:00 0 6806 9.48 8.92 9.86 39.4 -3.7 -4
2019-04-21 06:00:00 0 6806 8.14 7.1 8.71 44.89 -3.2 -3.5
2019-04-21 07:00:00 0 6844 6.64 5.94 7.67 52.13 -2.5 -3.1
2019-04-21 08:00:00 0 6992 9.9 8.16 11.5 44.86 -1.5 -2.4
2019-04-21 09:00:00 0 7128 12.89 11.84 13.73 37.61 -1.3 -1.9
2019-04-21 10:00:00 0 7226 14.75 14.08 15.34 35.01 -0.6 -1.4
2019-04-21 11:00:00 0 7236 16.33 15.23 18.22 32.62 -0.2 -0.6
2019-04-21 12:00:00 0 7196 18.13 16.38 19.48 28.97 -0.3 -1.6
2019-04-21 13:00:00 0 7246 19.72 18.3 20.95 24.94 -1 -1.6
2019-04-21 14:00:00 0 7236 21.39 20.11 22.41 19.07 -3.6 -5.9
2019-04-21 15:00:00 0 7236 21.45 20.76 22.3 16.16 -5.5 -6.7
2019-04-21 16:00:00 0 7236 20.49 20.08 20.84 17.5 -5.1 -5.5
2019-04-21 17:00:00 0 7246 20.95 20.23 21.96 17.34 -5 -5.9
2019-04-21 18:00:00 0 7138 20.2 19.29 21.04 19.81 -3.8 -4.3